sensor_id;sensor_type;location;lat;lon;timestamp;pressure;altitude;pressure_sealevel;temperature;humidity
75418;BME280;63997;52.112;5.420;2022-12-24T00:01:30;100637.56;;;9.21;92.20
75418;BME280;63997;52.112;5.420;2022-12-24T00:03:57;100635.22;;;9.20;92.02
75418;BME280;63997;52.112;5.420;2022-12-24T00:06:23;100643.50;;;9.18;92.25
75418;BME280;63997;52.112;5.420;2022-12-24T00:08:50;100647.25;;;9.17;92.21
75418;BME280;63997;52.112;5.420;2022-12-24T00:11:18;100650.66;;;9.18;92.37
75418;BME280;63997;52.112;5.420;2022-12-24T00:13:44;100657.84;;;9.17;92.28
75418;BME280;63997;52.112;5.420;2022-12-24T00:16:11;100653.66;;;9.16;92.44
75418;BME280;63997;52.112;5.420;2022-12-24T00:18:37;100656.28;;;9.16;92.47
75418;BME280;63997;52.112;5.420;2022-12-24T00:21:11;100658.94;;;9.16;92.58
75418;BME280;63997;52.112;5.420;2022-12-24T00:23:38;100670.34;;;9.17;92.43
75418;BME280;63997;52.112;5.420;2022-12-24T00:26:05;100670.66;;;9.15;92.26
75418;BME280;63997;52.112;5.420;2022-12-24T00:28:31;100664.56;;;9.15;92.02
75418;BME280;63997;52.112;5.420;2022-12-24T00:30:58;100664.88;;;9.13;91.95
75418;BME280;63997;52.112;5.420;2022-12-24T00:33:24;100667.06;;;9.11;92.32
75418;BME280;63997;52.112;5.420;2022-12-24T00:35:51;100673.47;;;9.10;92.36
75418;BME280;63997;52.112;5.420;2022-12-24T00:38:18;100678.28;;;9.08;92.17
75418;BME280;63997;52.112;5.420;2022-12-24T00:40:44;100685.47;;;9.08;92.18
75418;BME280;63997;52.112;5.420;2022-12-24T00:43:11;100685.78;;;9.06;91.83
75418;BME280;63997;52.112;5.420;2022-12-24T00:45:37;100692.66;;;9.07;91.77
75418;BME280;63997;52.112;5.420;2022-12-24T00:48:04;100695.94;;;9.04;91.85
75418;BME280;63997;52.112;5.420;2022-12-24T00:50:30;100706.38;;;9.00;91.76
75418;BME280;63997;52.112;5.420;2022-12-24T00:52:56;100701.69;;;8.97;91.69
75418;BME280;63997;52.112;5.420;2022-12-24T00:55:23;100711.84;;;8.95;91.76
75418;BME280;63997;52.112;5.420;2022-12-24T00:57:49;100715.13;;;8.92;92.06
75418;BME280;63997;52.112;5.420;2022-12-24T01:00:16;100728.38;;;8.92;91.92
75418;BME280;63997;52.112;5.420;2022-12-24T01:02:43;100730.72;;;8.94;92.07
75418;BME280;63997;52.112;5.420;2022-12-24T01:05:10;100733.97;;;8.91;92.02
75418;BME280;63997;52.112;5.420;2022-12-24T01:07:39;100735.06;;;8.90;91.84
75418;BME280;63997;52.112;5.420;2022-12-24T01:10:08;100737.28;;;8.88;92.12
75418;BME280;63997;52.112;5.420;2022-12-24T01:12:35;100746.91;;;8.84;92.26
75418;BME280;63997;52.112;5.420;2022-12-24T01:15:03;100757.06;;;8.82;91.96
75418;BME280;63997;52.112;5.420;2022-12-24T01:17:31;100760.78;;;8.81;91.61
75418;BME280;63997;52.112;5.420;2022-12-24T01:19:57;100764.22;;;8.72;91.90
75418;BME280;63997;52.112;5.420;2022-12-24T01:22:23;100768.88;;;8.67;91.83
75418;BME280;63997;52.112;5.420;2022-12-24T01:24:50;100771.22;;;8.68;92.09
75418;BME280;63997;52.112;5.420;2022-12-24T01:27:16;100777.91;;;8.66;92.03
75418;BME280;63997;52.112;5.420;2022-12-24T01:29:42;100783.53;;;8.64;91.99
75418;BME280;63997;52.112;5.420;2022-12-24T01:32:09;100782.56;;;8.60;92.10
75418;BME280;63997;52.112;5.420;2022-12-24T01:34:35;100787.69;;;8.57;92.07
75418;BME280;63997;52.112;5.420;2022-12-24T01:37:01;100780.84;;;8.56;92.09
75418;BME280;63997;52.112;5.420;2022-12-24T01:39:28;100795.00;;;8.51;91.99
75418;BME280;63997;52.112;5.420;2022-12-24T01:41:54;100788.59;;;8.43;91.83
75418;BME280;63997;52.112;5.420;2022-12-24T01:44:42;100785.09;;;8.34;92.01
75418;BME280;63997;52.112;5.420;2022-12-24T01:47:13;100787.84;;;8.29;92.00
75418;BME280;63997;52.112;5.420;2022-12-24T01:49:44;100793.00;;;8.26;92.00
75418;BME280;63997;52.112;5.420;2022-12-24T01:52:19;100800.56;;;8.18;92.00
75418;BME280;63997;52.112;5.420;2022-12-24T01:54:53;100801.00;;;8.12;92.09
75418;BME280;63997;52.112;5.420;2022-12-24T01:57:25;100801.13;;;8.07;92.10
75418;BME280;63997;52.112;5.420;2022-12-24T01:59:55;100807.84;;;8.04;92.38
75418;BME280;63997;52.112;5.420;2022-12-24T02:02:24;100814.81;;;8.00;92.44
75418;BME280;63997;52.112;5.420;2022-12-24T02:04:56;100810.13;;;7.97;92.50
75418;BME280;63997;52.112;5.420;2022-12-24T02:07:25;100817.09;;;7.93;92.51
75418;BME280;63997;52.112;5.420;2022-12-24T02:09:56;100820.66;;;7.88;92.54
75418;BME280;63997;52.112;5.420;2022-12-24T02:12:24;100824.19;;;7.84;92.62
75418;BME280;63997;52.112;5.420;2022-12-24T02:14:51;100829.31;;;7.80;92.56
75418;BME280;63997;52.112;5.420;2022-12-24T02:17:29;100837.38;;;7.75;93.11
75418;BME280;63997;52.112;5.420;2022-12-24T02:25:47;100846.22;;;7.71;93.44
75418;BME280;63997;52.112;5.420;2022-12-24T02:30:59;100845.56;;;7.65;93.36
75418;BME280;63997;52.112;5.420;2022-12-24T02:33:46;100851.16;;;7.63;93.34
75418;BME280;63997;52.112;5.420;2022-12-24T02:36:21;100850.16;;;7.59;93.49
75418;BME280;63997;52.112;5.420;2022-12-24T02:39:03;100856.03;;;7.56;93.54
75418;BME280;63997;52.112;5.420;2022-12-24T02:41:36;100857.44;;;7.54;93.71
75418;BME280;63997;52.112;5.420;2022-12-24T02:44:25;100853.03;;;7.49;93.82
75418;BME280;63997;52.112;5.420;2022-12-24T02:46:52;100850.19;;;7.46;93.68
75418;BME280;63997;52.112;5.420;2022-12-24T02:49:20;100856.41;;;7.41;93.74
75418;BME280;63997;52.112;5.420;2022-12-24T02:51:46;100861.19;;;7.39;93.70
75418;BME280;63997;52.112;5.420;2022-12-24T02:54:13;100857.56;;;7.35;93.80
75418;BME280;63997;52.112;5.420;2022-12-24T02:59:38;100872.94;;;7.33;94.12
75418;BME280;63997;52.112;5.420;2022-12-24T03:02:33;100878.03;;;7.29;93.99
75418;BME280;63997;52.112;5.420;2022-12-24T03:05:09;100882.84;;;7.27;93.99
75418;BME280;63997;52.112;5.420;2022-12-24T03:07:46;100878.63;;;7.26;94.21
75418;BME280;63997;52.112;5.420;2022-12-24T03:10:30;100878.94;;;7.25;93.98
75418;BME280;63997;52.112;5.420;2022-12-24T03:13:18;100876.31;;;7.25;94.13
75418;BME280;63997;52.112;5.420;2022-12-24T03:15:46;100878.44;;;7.23;94.14
75418;BME280;63997;52.112;5.420;2022-12-24T03:18:14;100883.25;;;7.21;94.28
75418;BME280;63997;52.112;5.420;2022-12-24T03:20:45;100870.81;;;7.21;94.33
75418;BME280;63997;52.112;5.420;2022-12-24T03:23:14;100880.91;;;7.19;94.38
75418;BME280;63997;52.112;5.420;2022-12-24T03:25:42;100882.25;;;7.16;94.44
75418;BME280;63997;52.112;5.420;2022-12-24T03:28:12;100885.69;;;7.17;94.27
75418;BME280;63997;52.112;5.420;2022-12-24T03:30:41;100892.84;;;7.16;94.62
75418;BME280;63997;52.112;5.420;2022-12-24T03:33:09;100899.13;;;7.21;94.82
75418;BME280;63997;52.112;5.420;2022-12-24T03:35:36;100899.59;;;7.23;95.02
75418;BME280;63997;52.112;5.420;2022-12-24T03:38:02;100888.44;;;7.26;95.16
75418;BME280;63997;52.112;5.420;2022-12-24T03:40:29;100898.16;;;7.30;95.28
75418;BME280;63997;52.112;5.420;2022-12-24T03:42:56;100897.22;;;7.35;95.31
75418;BME280;63997;52.112;5.420;2022-12-24T03:45:22;100895.69;;;7.34;95.56
75418;BME280;63997;52.112;5.420;2022-12-24T03:47:49;100899.88;;;7.35;95.48
75418;BME280;63997;52.112;5.420;2022-12-24T03:50:15;100905.69;;;7.37;95.57
75418;BME280;63997;52.112;5.420;2022-12-24T03:52:41;100902.94;;;7.42;95.92
75418;BME280;63997;52.112;5.420;2022-12-24T03:55:08;100904.88;;;7.50;95.87
75418;BME280;63997;52.112;5.420;2022-12-24T03:57:34;100904.47;;;7.57;96.07
75418;BME280;63997;52.112;5.420;2022-12-24T04:00:02;100906.22;;;7.61;96.05
75418;BME280;63997;52.112;5.420;2022-12-24T04:02:28;100904.56;;;7.65;96.31
75418;BME280;63997;52.112;5.420;2022-12-24T04:04:55;100901.81;;;7.71;96.34
75418;BME280;63997;52.112;5.420;2022-12-24T04:07:21;100906.22;;;7.75;96.31
75418;BME280;63997;52.112;5.420;2022-12-24T04:09:48;100918.53;;;7.80;96.40
75418;BME280;63997;52.112;5.420;2022-12-24T04:12:14;100918.72;;;7.83;96.43
75418;BME280;63997;52.112;5.420;2022-12-24T04:14:40;100918.44;;;7.85;96.43
75418;BME280;63997;52.112;5.420;2022-12-24T04:17:07;100907.25;;;7.88;96.48
75418;BME280;63997;52.112;5.420;2022-12-24T04:19:34;100916.75;;;7.89;96.39
75418;BME280;63997;52.112;5.420;2022-12-24T04:22:01;100917.72;;;7.93;96.43
75418;BME280;63997;52.112;5.420;2022-12-24T04:24:27;100917.63;;;7.98;96.51
75418;BME280;63997;52.112;5.420;2022-12-24T04:26:53;100928.69;;;8.00;96.51
75418;BME280;63997;52.112;5.420;2022-12-24T04:29:20;100931.81;;;8.02;96.48
75418;BME280;63997;52.112;5.420;2022-12-24T04:31:46;100932.78;;;8.06;96.48
75418;BME280;63997;52.112;5.420;2022-12-24T04:34:12;100933.56;;;8.07;96.45
75418;BME280;63997;52.112;5.420;2022-12-24T04:36:39;100937.50;;;8.09;96.47
75418;BME280;63997;52.112;5.420;2022-12-24T04:39:05;100925.19;;;8.13;96.37
75418;BME280;63997;52.112;5.420;2022-12-24T04:41:32;100936.31;;;8.15;96.49
75418;BME280;63997;52.112;5.420;2022-12-24T04:43:58;100942.69;;;8.14;96.37
75418;BME280;63997;52.112;5.420;2022-12-24T04:46:27;100945.34;;;8.14;96.37
75418;BME280;63997;52.112;5.420;2022-12-24T04:48:58;100935.22;;;8.16;96.34
75418;BME280;63997;52.112;5.420;2022-12-24T04:51:25;100942.56;;;8.19;96.40
75418;BME280;63997;52.112;5.420;2022-12-24T04:53:52;100936.66;;;8.22;96.27
75418;BME280;63997;52.112;5.420;2022-12-24T04:56:24;100930.78;;;8.26;96.39
75418;BME280;63997;52.112;5.420;2022-12-24T04:58:51;100944.28;;;8.24;96.23
75418;BME280;63997;52.112;5.420;2022-12-24T05:01:24;100952.44;;;8.28;96.38
75418;BME280;63997;52.112;5.420;2022-12-24T05:03:51;100950.25;;;8.30;96.32
75418;BME280;63997;52.112;5.420;2022-12-24T05:06:21;100945.59;;;8.27;96.28
75418;BME280;63997;52.112;5.420;2022-12-24T05:08:48;100944.50;;;8.28;96.56
75418;BME280;63997;52.112;5.420;2022-12-24T05:11:15;100948.38;;;8.30;96.46
75418;BME280;63997;52.112;5.420;2022-12-24T05:13:42;100950.44;;;8.33;96.50
75418;BME280;63997;52.112;5.420;2022-12-24T05:16:13;100937.91;;;8.39;96.37
75418;BME280;63997;52.112;5.420;2022-12-24T05:18:40;100948.28;;;8.35;96.30
75418;BME280;63997;52.112;5.420;2022-12-24T05:21:12;100941.13;;;8.36;96.25
75418;BME280;63997;52.112;5.420;2022-12-24T05:23:39;100951.75;;;8.36;96.27
75418;BME280;63997;52.112;5.420;2022-12-24T05:26:42;100958.63;;;8.37;96.41
75418;BME280;63997;52.112;5.420;2022-12-24T05:29:10;100957.22;;;8.39;96.36
75418;BME280;63997;52.112;5.420;2022-12-24T05:31:41;100958.00;;;8.40;96.48
75418;BME280;63997;52.112;5.420;2022-12-24T05:34:08;100949.75;;;8.41;96.37
75418;BME280;63997;52.112;5.420;2022-12-24T05:36:36;100964.28;;;8.44;96.64
75418;BME280;63997;52.112;5.420;2022-12-24T05:39:02;100955.25;;;8.45;96.61
75418;BME280;63997;52.112;5.420;2022-12-24T05:41:32;100967.41;;;8.46;96.65
75418;BME280;63997;52.112;5.420;2022-12-24T05:43:58;100969.47;;;8.49;96.67
75418;BME280;63997;52.112;5.420;2022-12-24T05:46:25;100960.44;;;8.50;96.69
75418;BME280;63997;52.112;5.420;2022-12-24T05:48:52;100963.25;;;8.54;96.75
75418;BME280;63997;52.112;5.420;2022-12-24T05:51:20;100965.59;;;8.55;96.80
75418;BME280;63997;52.112;5.420;2022-12-24T05:53:48;100961.88;;;8.56;96.69
75418;BME280;63997;52.112;5.420;2022-12-24T05:56:18;100967.16;;;8.56;96.81
75418;BME280;63997;52.112;5.420;2022-12-24T05:58:44;100968.72;;;8.57;96.74
75418;BME280;63997;52.112;5.420;2022-12-24T06:01:11;100976.56;;;8.62;96.89
75418;BME280;63997;52.112;5.420;2022-12-24T06:03:38;100975.47;;;8.63;96.95
75418;BME280;63997;52.112;5.420;2022-12-24T06:06:10;100981.88;;;8.62;96.74
75418;BME280;63997;52.112;5.420;2022-12-24T06:08:38;100987.66;;;8.64;96.88
75418;BME280;63997;52.112;5.420;2022-12-24T06:11:07;100988.13;;;8.66;96.96
75418;BME280;63997;52.112;5.420;2022-12-24T06:13:34;100982.06;;;8.66;97.00
75418;BME280;63997;52.112;5.420;2022-12-24T06:16:02;100982.84;;;8.66;96.88
75418;BME280;63997;52.112;5.420;2022-12-24T06:18:31;100991.09;;;8.65;96.80
75418;BME280;63997;52.112;5.420;2022-12-24T06:20:58;100997.19;;;8.65;96.87
75418;BME280;63997;52.112;5.420;2022-12-24T06:23:28;101001.88;;;8.68;96.99
75418;BME280;63997;52.112;5.420;2022-12-24T06:25:56;100996.56;;;8.68;96.97
75418;BME280;63997;52.112;5.420;2022-12-24T06:28:23;100993.13;;;8.68;97.07
75418;BME280;63997;52.112;5.420;2022-12-24T06:30:50;100988.59;;;8.68;97.15
75418;BME280;63997;52.112;5.420;2022-12-24T06:33:22;100995.78;;;8.68;96.85
75418;BME280;63997;52.112;5.420;2022-12-24T06:35:48;101013.56;;;8.67;97.04
75418;BME280;63997;52.112;5.420;2022-12-24T06:38:15;101004.03;;;8.66;96.84
75418;BME280;63997;52.112;5.420;2022-12-24T06:40:43;101004.50;;;8.68;97.00
75418;BME280;63997;52.112;5.420;2022-12-24T06:43:11;101007.16;;;8.68;96.96
75418;BME280;63997;52.112;5.420;2022-12-24T06:45:38;101007.16;;;8.68;96.83
75418;BME280;63997;52.112;5.420;2022-12-24T06:48:05;101012.97;;;8.70;97.00
75418;BME280;63997;52.112;5.420;2022-12-24T06:50:33;101011.56;;;8.73;96.96
75418;BME280;63997;52.112;5.420;2022-12-24T06:52:59;101019.22;;;8.74;96.98
75418;BME280;63997;52.112;5.420;2022-12-24T06:55:25;101021.88;;;8.74;96.96
75418;BME280;63997;52.112;5.420;2022-12-24T06:57:52;101016.56;;;8.74;96.85
75418;BME280;63997;52.112;5.420;2022-12-24T07:00:18;101027.34;;;8.78;96.94
75418;BME280;63997;52.112;5.420;2022-12-24T07:02:46;101018.31;;;8.79;96.87
75418;BME280;63997;52.112;5.420;2022-12-24T07:05:13;101020.66;;;8.81;96.69
75418;BME280;63997;52.112;5.420;2022-12-24T07:07:41;101018.00;;;8.81;96.72
75418;BME280;63997;52.112;5.420;2022-12-24T07:10:16;101018.31;;;8.79;96.83
75418;BME280;63997;52.112;5.420;2022-12-24T07:12:43;101033.44;;;8.79;96.67
75418;BME280;63997;52.112;5.420;2022-12-24T07:15:10;101032.34;;;8.80;96.61
75418;BME280;63997;52.112;5.420;2022-12-24T07:17:37;101035.00;;;8.80;96.39
75418;BME280;63997;52.112;5.420;2022-12-24T07:20:05;101040.63;;;8.78;96.31
75418;BME280;63997;52.112;5.420;2022-12-24T07:22:32;101032.78;;;8.73;96.52
75418;BME280;63997;52.112;5.420;2022-12-24T07:24:58;101054.00;;;8.73;96.28
75418;BME280;63997;52.112;5.420;2022-12-24T07:27:25;101048.03;;;8.67;95.90
75418;BME280;63997;52.112;5.420;2022-12-24T07:29:51;101058.16;;;8.65;96.14
75418;BME280;63997;52.112;5.420;2022-12-24T07:32:17;101063.47;;;8.65;96.03
75418;BME280;63997;52.112;5.420;2022-12-24T07:34:45;101069.84;;;8.64;96.15
75418;BME280;63997;52.112;5.420;2022-12-24T07:37:12;101076.72;;;8.65;96.04
75418;BME280;63997;52.112;5.420;2022-12-24T07:39:38;101082.50;;;8.67;96.16
75418;BME280;63997;52.112;5.420;2022-12-24T07:42:04;101096.53;;;8.68;96.33
75418;BME280;63997;52.112;5.420;2022-12-24T07:44:33;101095.16;;;8.70;96.26
75418;BME280;63997;52.112;5.420;2022-12-24T07:46:59;101089.56;;;8.72;96.02
75418;BME280;63997;52.112;5.420;2022-12-24T07:49:26;101104.38;;;8.73;96.12
75418;BME280;63997;52.112;5.420;2022-12-24T07:51:52;101106.72;;;8.74;96.21
75418;BME280;63997;52.112;5.420;2022-12-24T07:54:19;101110.47;;;8.73;95.95
75418;BME280;63997;52.112;5.420;2022-12-24T07:56:45;101124.22;;;8.76;95.93
75418;BME280;63997;52.112;5.420;2022-12-24T07:59:12;101130.78;;;8.78;96.00
75418;BME280;63997;52.112;5.420;2022-12-24T08:01:39;101134.22;;;8.79;95.83
75418;BME280;63997;52.112;5.420;2022-12-24T08:04:06;101144.03;;;8.78;95.85
75418;BME280;63997;52.112;5.420;2022-12-24T08:06:32;101149.03;;;8.80;95.68
75418;BME280;63997;52.112;5.420;2022-12-24T08:08:59;101146.38;;;8.80;95.70
75418;BME280;63997;52.112;5.420;2022-12-24T08:11:25;101148.75;;;8.81;95.89
75418;BME280;63997;52.112;5.420;2022-12-24T08:13:51;101151.41;;;8.81;95.44
75418;BME280;63997;52.112;5.420;2022-12-24T08:16:18;101153.25;;;8.81;95.62
75418;BME280;63997;52.112;5.420;2022-12-24T08:18:44;101166.81;;;8.79;95.47
75418;BME280;63997;52.112;5.420;2022-12-24T08:21:10;101159.16;;;8.78;95.42
75418;BME280;63997;52.112;5.420;2022-12-24T08:23:37;101155.44;;;8.79;95.24
75418;BME280;63997;52.112;5.420;2022-12-24T08:26:07;101176.66;;;8.79;95.42
75418;BME280;63997;52.112;5.420;2022-12-24T08:28:34;101172.13;;;8.79;95.25
75418;BME280;63997;52.112;5.420;2022-12-24T08:31:01;101173.69;;;8.80;95.40
75418;BME280;63997;52.112;5.420;2022-12-24T08:33:28;101169.66;;;8.83;95.16
75418;BME280;63997;52.112;5.420;2022-12-24T08:35:54;101166.41;;;8.86;95.22
75418;BME280;63997;52.112;5.420;2022-12-24T08:38:21;101165.19;;;8.92;94.95
75418;BME280;63997;52.112;5.420;2022-12-24T08:40:47;101178.34;;;8.97;95.30
75418;BME280;63997;52.112;5.420;2022-12-24T08:43:16;101180.44;;;9.00;95.01
75418;BME280;63997;52.112;5.420;2022-12-24T08:45:42;101183.56;;;9.02;95.08
75418;BME280;63997;52.112;5.420;2022-12-24T08:48:09;101196.81;;;9.02;94.98
75418;BME280;63997;52.112;5.420;2022-12-24T08:50:38;101200.75;;;9.05;95.04
75418;BME280;63997;52.112;5.420;2022-12-24T08:53:04;101212.63;;;9.07;95.16
75418;BME280;63997;52.112;5.420;2022-12-24T08:55:31;101208.88;;;9.08;95.05
75418;BME280;63997;52.112;5.420;2022-12-24T08:57:58;101208.59;;;9.10;95.11
75418;BME280;63997;52.112;5.420;2022-12-24T09:00:25;101216.72;;;9.13;95.21
75418;BME280;63997;52.112;5.420;2022-12-24T09:02:52;101201.31;;;9.15;94.87
75418;BME280;63997;52.112;5.420;2022-12-24T09:05:18;101205.53;;;9.16;94.85
75418;BME280;63997;52.112;5.420;2022-12-24T09:07:45;101219.56;;;9.17;94.88
75418;BME280;63997;52.112;5.420;2022-12-24T09:10:11;101217.13;;;9.20;94.68
75418;BME280;63997;52.112;5.420;2022-12-24T09:12:37;101226.66;;;9.21;94.91
75418;BME280;63997;52.112;5.420;2022-12-24T09:15:04;101235.38;;;9.22;94.49
75418;BME280;63997;52.112;5.420;2022-12-24T09:17:34;101243.34;;;9.22;94.78
75418;BME280;63997;52.112;5.420;2022-12-24T09:20:02;101240.38;;;9.23;94.55
75418;BME280;63997;52.112;5.420;2022-12-24T09:22:28;101240.09;;;9.25;94.76
75418;BME280;63997;52.112;5.420;2022-12-24T09:24:55;101246.69;;;9.27;94.71
75418;BME280;63997;52.112;5.420;2022-12-24T09:27:22;101247.16;;;9.30;94.58
75418;BME280;63997;52.112;5.420;2022-12-24T09:29:48;101261.41;;;9.34;94.60
75418;BME280;63997;52.112;5.420;2022-12-24T09:32:15;101253.91;;;9.36;94.60
75418;BME280;63997;52.112;5.420;2022-12-24T09:34:41;101257.06;;;9.38;94.54
75418;BME280;63997;52.112;5.420;2022-12-24T09:37:08;101257.53;;;9.40;94.37
75418;BME280;63997;52.112;5.420;2022-12-24T09:39:34;101270.50;;;9.41;94.34
75418;BME280;63997;52.112;5.420;2022-12-24T09:45:06;101287.63;;;9.49;94.13
75418;BME280;63997;52.112;5.420;2022-12-24T09:47:38;101288.09;;;9.51;94.12
75418;BME280;63997;52.112;5.420;2022-12-24T09:50:28;101296.84;;;9.51;93.62
75418;BME280;63997;52.112;5.420;2022-12-24T09:53:00;101296.06;;;9.51;93.83
75418;BME280;63997;52.112;5.420;2022-12-24T09:55:32;101289.97;;;9.50;93.47
75418;BME280;63997;52.112;5.420;2022-12-24T09:58:03;101288.41;;;9.49;93.37
75418;BME280;63997;52.112;5.420;2022-12-24T10:00:34;101291.84;;;9.50;93.65
75418;BME280;63997;52.112;5.420;2022-12-24T10:03:13;101294.84;;;9.57;93.34
75418;BME280;63997;52.112;5.420;2022-12-24T10:11:10;101295.09;;;9.69;93.47
75418;BME280;63997;52.112;5.420;2022-12-24T10:14:00;101297.28;;;9.67;93.09
75418;BME280;63997;52.112;5.420;2022-12-24T10:16:40;101301.97;;;9.70;93.25
75418;BME280;63997;52.112;5.420;2022-12-24T10:19:16;101306.63;;;9.87;93.22
75418;BME280;63997;52.112;5.420;2022-12-24T10:21:56;101292.97;;;10.02;92.55
75418;BME280;63997;52.112;5.420;2022-12-24T10:24:35;101299.84;;;10.03;92.49
75418;BME280;63997;52.112;5.420;2022-12-24T10:27:13;101292.06;;;10.07;92.20
75418;BME280;63997;52.112;5.420;2022-12-24T10:29:43;101297.28;;;10.21;91.88
75418;BME280;63997;52.112;5.420;2022-12-24T10:32:21;101279.38;;;10.26;91.38
75418;BME280;63997;52.112;5.420;2022-12-24T10:34:58;101294.34;;;10.22;91.54
75418;BME280;63997;52.112;5.420;2022-12-24T10:37:28;101291.88;;;10.26;91.01
75418;BME280;63997;52.112;5.420;2022-12-24T10:39:57;101299.25;;;10.29;90.86
75418;BME280;63997;52.112;5.420;2022-12-24T10:42:31;101292.13;;;10.16;90.83
75418;BME280;63997;52.112;5.420;2022-12-24T10:45:03;101306.44;;;10.06;90.73
75418;BME280;63997;52.112;5.420;2022-12-24T10:47:32;101309.88;;;10.06;90.92
75418;BME280;63997;52.112;5.420;2022-12-24T10:52:46;101312.47;;;9.98;91.00
75418;BME280;63997;52.112;5.420;2022-12-24T10:58:05;101299.19;;;9.98;91.72
75418;BME280;63997;52.112;5.420;2022-12-24T11:00:33;101307.03;;;10.03;91.20
75418;BME280;63997;52.112;5.420;2022-12-24T11:03:22;101316.47;;;10.09;91.44
75418;BME280;63997;52.112;5.420;2022-12-24T11:06:01;101316.34;;;10.14;91.57
75418;BME280;63997;52.112;5.420;2022-12-24T11:08:28;101314.75;;;10.13;91.22
75418;BME280;63997;52.112;5.420;2022-12-24T11:10:59;101317.91;;;10.15;91.34
75418;BME280;63997;52.112;5.420;2022-12-24T11:13:33;101310.84;;;10.11;91.00
75418;BME280;63997;52.112;5.420;2022-12-24T11:16:04;101310.66;;;10.07;90.79
75418;BME280;63997;52.112;5.420;2022-12-24T11:18:34;101310.47;;;10.03;90.79
75418;BME280;63997;52.112;5.420;2022-12-24T11:21:02;101312.66;;;10.01;90.81
75418;BME280;63997;52.112;5.420;2022-12-24T11:23:29;101299.50;;;9.96;90.63
75418;BME280;63997;52.112;5.420;2022-12-24T11:25:56;101309.94;;;9.93;91.11
75418;BME280;63997;52.112;5.420;2022-12-24T11:28:29;101313.09;;;9.95;90.78
75418;BME280;63997;52.112;5.420;2022-12-24T11:33:28;101319.50;;;9.94;90.18
75418;BME280;63997;52.112;5.420;2022-12-24T11:35:59;101322.16;;;9.94;90.57
75418;BME280;63997;52.112;5.420;2022-12-24T11:38:28;101333.84;;;9.93;90.50
75418;BME280;63997;52.112;5.420;2022-12-24T11:41:00;101332.78;;;9.94;90.26
75418;BME280;63997;52.112;5.420;2022-12-24T11:43:34;101321.38;;;9.93;90.03
75418;BME280;63997;52.112;5.420;2022-12-24T11:46:33;101332.00;;;9.93;90.22
75418;BME280;63997;52.112;5.420;2022-12-24T11:51:38;101332.16;;;9.97;89.18
75418;BME280;63997;52.112;5.420;2022-12-24T11:54:18;101330.97;;;10.03;89.71
75418;BME280;63997;52.112;5.420;2022-12-24T11:56:51;101322.28;;;10.11;89.34
75418;BME280;63997;52.112;5.420;2022-12-24T11:59:25;101339.47;;;10.14;89.10
75418;BME280;63997;52.112;5.420;2022-12-24T12:01:58;101335.44;;;10.16;89.00
75418;BME280;63997;52.112;5.420;2022-12-24T12:04:34;101334.66;;;10.16;88.03
75418;BME280;63997;52.112;5.420;2022-12-24T12:07:17;101343.78;;;10.23;88.37
75418;BME280;63997;52.112;5.420;2022-12-24T12:10:16;101339.13;;;10.29;87.99
75418;BME280;63997;52.112;5.420;2022-12-24T12:12:56;101340.50;;;10.26;87.58
75418;BME280;63997;52.112;5.420;2022-12-24T12:15:50;101350.94;;;10.23;86.80
75418;BME280;63997;52.112;5.420;2022-12-24T12:18:32;101352.16;;;10.17;86.16
75418;BME280;63997;52.112;5.420;2022-12-24T12:21:22;101355.91;;;10.16;86.68
75418;BME280;63997;52.112;5.420;2022-12-24T12:23:59;101366.03;;;10.14;86.18
75418;BME280;63997;52.112;5.420;2022-12-24T12:26:29;101354.94;;;10.12;86.45
75418;BME280;63997;52.112;5.420;2022-12-24T12:31:47;101374.63;;;10.11;86.50
75418;BME280;63997;52.112;5.420;2022-12-24T12:34:36;101369.59;;;10.09;87.37
75418;BME280;63997;52.112;5.420;2022-12-24T12:37:11;101370.09;;;10.11;87.79
75418;BME280;63997;52.112;5.420;2022-12-24T12:39:41;101363.81;;;10.07;86.11
75418;BME280;63997;52.112;5.420;2022-12-24T12:42:17;101372.25;;;10.09;86.84
75418;BME280;63997;52.112;5.420;2022-12-24T12:44:56;101370.69;;;10.08;86.20
75418;BME280;63997;52.112;5.420;2022-12-24T12:58:33;101381.78;;;10.24;87.14
75418;BME280;63997;52.112;5.420;2022-12-24T13:01:08;101381.19;;;10.27;87.19
75418;BME280;63997;52.112;5.420;2022-12-24T13:04:01;101393.66;;;10.26;86.97
75418;BME280;63997;52.112;5.420;2022-12-24T13:06:48;101390.03;;;10.22;87.07
75418;BME280;63997;52.112;5.420;2022-12-24T13:09:47;101395.47;;;10.17;86.57
75418;BME280;63997;52.112;5.420;2022-12-24T13:12:36;101399.22;;;10.16;87.01
75418;BME280;63997;52.112;5.420;2022-12-24T13:15:28;101399.69;;;10.18;86.94
75418;BME280;63997;52.112;5.420;2022-12-24T13:21:19;101394.38;;;10.18;86.40
75418;BME280;63997;52.112;5.420;2022-12-24T13:23:47;101401.75;;;10.21;85.96
75418;BME280;63997;52.112;5.420;2022-12-24T13:26:14;101405.41;;;10.25;85.67
75418;BME280;63997;52.112;5.420;2022-12-24T13:28:42;101402.75;;;10.25;85.19
75418;BME280;63997;52.112;5.420;2022-12-24T13:33:58;101405.28;;;10.30;85.78
75418;BME280;63997;52.112;5.420;2022-12-24T13:37:00;101417.19;;;10.33;85.43
75418;BME280;63997;52.112;5.420;2022-12-24T13:39:28;101425.97;;;10.33;85.92
75418;BME280;63997;52.112;5.420;2022-12-24T13:42:48;101430.28;;;10.29;85.36
75418;BME280;63997;52.112;5.420;2022-12-24T13:50:47;101439.25;;;10.33;84.83
75418;BME280;63997;52.112;5.420;2022-12-24T13:58:27;101440.81;;;10.35;85.07
75418;BME280;63997;52.112;5.420;2022-12-24T14:00:57;101439.38;;;10.28;84.70
75418;BME280;63997;52.112;5.420;2022-12-24T14:03:41;101440.16;;;10.29;85.29
75418;BME280;63997;52.112;5.420;2022-12-24T14:06:21;101454.81;;;10.26;84.81
75418;BME280;63997;52.112;5.420;2022-12-24T14:08:51;101457.88;;;10.20;84.37
75418;BME280;63997;52.112;5.420;2022-12-24T14:16:18;101456.78;;;10.21;85.39
75418;BME280;63997;52.112;5.420;2022-12-24T14:18:58;101464.66;;;10.26;85.86
75418;BME280;63997;52.112;5.420;2022-12-24T14:21:30;101464.06;;;10.29;86.55